Time;durP1;ratioP1;P1;durP2;ratioP2;P2;SDS_P1;SDS_P2;PMS_P1;PMS_P2;Temp;Humidity;BMP_temperature;BMP_pressure;BME280_temperature;BME280_humidity;BME280_pressure;Samples;Min_cycle;Max_cycle;Signal;HPM_P1;HPM_P2
2021/12/04 00:01:09;;;;;;;4.50;2.80;;;;;;;12.52;29.85;97678.69;5041738;28;20127;-75
2021/12/04 00:03:36;;;;;;;5.70;3.03;;;;;;;12.36;30.01;97709.31;5091530;28;20047;-73
2021/12/04 00:06:09;;;;;;;3.33;2.40;;;;;;;12.00;29.70;97706.50;5073961;28;20112;-74
2021/12/04 00:08:36;;;;;;;3.97;2.60;;;;;;;12.20;29.64;97712.53;5074049;28;20093;-73
2021/12/04 00:11:03;;;;;;;4.70;2.60;;;;;;;12.78;29.17;97710.41;5074110;28;20522;-73
2021/12/04 00:13:28;;;;;;;2.77;2.33;;;;;;;11.90;29.89;97706.97;5040561;28;20050;-72
2021/12/04 00:15:54;;;;;;;5.13;3.03;;;;;;;12.36;29.30;97701.34;5040233;28;20434;-74
2021/12/04 00:18:20;;;;;;;4.70;2.27;;;;;;;11.88;29.05;97709.00;5090460;28;20134;-73
2021/12/04 00:20:45;;;;;;;2.23;2.00;;;;;;;11.70;29.80;97708.13;5057240;28;20043;-73
2021/12/04 00:23:11;;;;;;;5.07;2.57;;;;;;;11.80;29.84;97716.44;5074282;28;20052;-72
2021/12/04 00:25:39;;;;;;;3.37;2.53;;;;;;;11.99;29.88;97701.41;5040219;28;20089;-73
2021/12/04 00:28:06;;;;;;;2.97;2.40;;;;;;;12.36;29.84;97716.50;5089635;28;20055;-72
2021/12/04 00:30:32;;;;;;;5.70;2.80;;;;;;;12.11;29.45;97691.69;5091592;28;20036;-71
2021/12/04 00:33:03;;;;;;;3.40;2.90;;;;;;;11.93;29.79;97702.25;5091380;28;20097;-72
2021/12/04 00:51:17;;;;;;;5.40;2.57;;;;;;;11.54;30.04;97703.22;5058516;28;20412;-72
2021/12/04 00:53:43;;;;;;;3.20;2.70;;;;;;;12.03;29.52;97705.25;5056423;28;20040;-72
2021/12/04 00:56:09;;;;;;;4.73;2.67;;;;;;;11.62;29.41;97710.97;5073161;28;20079;-72
2021/12/04 00:58:34;;;;;;;3.20;2.63;;;;;;;12.14;29.18;97716.03;5107010;28;20051;-72
2021/12/04 01:01:00;;;;;;;5.50;2.80;;;;;;;11.70;29.44;97705.47;5089704;28;20055;-71
2021/12/04 01:03:25;;;;;;;5.07;3.50;;;;;;;11.35;29.61;97696.13;5072661;28;20032;-71
2021/12/04 01:05:51;;;;;;;4.63;3.00;;;;;;;11.86;29.61;97715.59;5091033;28;20420;-72
2021/12/04 01:08:17;;;;;;;4.77;3.00;;;;;;;11.77;29.73;97719.53;5089554;28;20500;-72
2021/12/04 01:10:43;;;;;;;4.37;3.30;;;;;;;12.13;29.30;97710.94;5089849;28;20503;-72
2021/12/04 01:13:12;;;;;;;6.40;3.20;;;;;;;11.54;29.62;97700.56;5073063;28;20626;-72
2021/12/04 01:15:42;;;;;;;5.47;3.40;;;;;;;12.55;29.07;97712.88;5089767;28;20495;-72
2021/12/04 01:18:10;;;;;;;6.22;3.63;;;;;;;11.98;29.43;97721.06;5089891;28;20115;-71
2021/12/04 01:20:35;;;;;;;5.97;3.70;;;;;;;11.27;30.63;97704.38;5091000;28;20055;-71
2021/12/04 01:23:01;;;;;;;5.53;3.63;;;;;;;11.50;30.15;97694.06;5089811;28;20044;-72
2021/12/04 01:25:27;;;;;;;8.40;4.93;;;;;;;11.25;29.89;97709.88;5056038;28;20047;-71
2021/12/04 01:27:53;;;;;;;5.17;3.63;;;;;;;11.18;30.03;97711.72;5089293;28;20415;-70
2021/12/04 01:30:19;;;;;;;6.40;3.77;;;;;;;11.00;30.38;97718.72;5072662;28;20032;-70
2021/12/04 01:32:44;;;;;;;5.80;3.03;;;;;;;11.01;30.15;97720.38;5072492;28;20044;-72
2021/12/04 01:35:10;;;;;;;5.03;3.30;;;;;;;10.85;30.22;97703.03;5072961;28;20051;-71
2021/12/04 01:37:36;;;;;;;5.60;3.60;;;;;;;11.26;29.90;97702.72;5072592;28;20044;-72
2021/12/04 01:40:03;;;;;;;5.30;3.30;;;;;;;11.51;29.89;97724.91;5059284;28;20537;-72
2021/12/04 01:42:31;;;;;;;4.00;3.17;;;;;;;11.26;30.03;97716.00;5076484;28;20411;-72
2021/12/04 01:44:57;;;;;;;6.57;3.30;;;;;;;10.51;30.95;97707.72;5076987;28;20468;-71
2021/12/04 01:47:23;;;;;;;5.47;3.20;;;;;;;10.50;30.76;97717.53;5076163;28;20055;-70
2021/12/04 01:49:51;;;;;;;4.03;3.23;;;;;;;11.21;30.47;97719.28;5076415;28;20476;-71
2021/12/04 01:52:18;;;;;;;5.93;3.17;;;;;;;10.79;30.26;97729.56;5093483;28;20048;-73
2021/12/04 01:54:45;;;;;;;5.97;3.43;;;;;;;10.63;30.92;97720.19;5095009;28;20476;-70
2021/12/04 01:57:12;;;;;;;8.57;3.40;;;;;;;10.97;30.64;97725.25;5076612;28;20036;-72
2021/12/04 01:59:38;;;;;;;5.67;3.20;;;;;;;10.61;30.91;97722.22;5059708;28;20040;-72
2021/12/04 02:02:04;;;;;;;4.10;2.83;;;;;;;10.66;31.07;97734.88;5093087;28;20040;-72
2021/12/04 02:04:29;;;;;;;5.93;3.13;;;;;;;10.66;30.31;97729.56;5076038;28;20048;-70
2021/12/04 02:06:55;;;;;;;6.07;3.33;;;;;;;10.83;30.37;97717.50;5075984;28;20055;-71
2021/12/04 02:09:21;;;;;;;9.67;3.63;;;;;;;10.50;30.79;97727.34;5092598;28;20507;-72
2021/12/04 02:11:47;;;;;;;4.60;3.43;;;;;;;10.01;30.96;97736.41;5093378;28;20054;-72
2021/12/04 02:14:13;;;;;;;6.73;3.33;;;;;;;10.29;31.18;97735.50;5076180;28;20050;-71
2021/12/04 02:16:38;;;;;;;4.33;3.50;;;;;;;10.30;30.90;97722.03;5093883;28;20044;-70
2021/12/04 02:19:04;;;;;;;4.07;3.43;;;;;;;10.68;30.63;97736.31;5075877;28;20047;-69
2021/12/04 02:21:31;;;;;;;4.20;3.23;;;;;;;10.03;31.46;97736.22;5058888;28;20590;-71
2021/12/04 02:23:57;;;;;;;7.20;3.03;;;;;;;10.54;31.22;97729.38;5075741;28;20044;-72
2021/12/04 02:26:23;;;;;;;5.03;3.83;;;;;;;9.79;31.17;97742.06;5075519;28;20131;-70
2021/12/04 02:28:49;;;;;;;5.33;2.97;;;;;;;10.38;31.01;97734.28;5109739;28;20155;-72
2021/12/04 02:31:15;;;;;;;5.03;3.60;;;;;;;10.32;31.14;97743.03;5076077;28;20523;-71
2021/12/04 02:33:40;;;;;;;6.00;3.67;;;;;;;9.83;31.45;97756.53;5075536;28;20179;-71
2021/12/04 02:36:07;;;;;;;4.20;3.40;;;;;;;10.44;30.93;97767.97;5075595;28;20040;-72
2021/12/04 02:38:33;;;;;;;8.87;3.70;;;;;;;10.80;30.46;97752.44;5075377;28;20625;-71
2021/12/04 02:41:00;;;;;;;5.37;3.37;;;;;;;10.41;31.34;97744.47;5058844;28;20048;-71
2021/12/04 02:43:26;;;;;;;3.97;3.20;;;;;;;10.10;31.78;97737.88;5092027;28;20504;-71
2021/12/04 02:45:52;;;;;;;4.40;3.37;;;;;;;9.76;31.90;97751.22;5108994;28;20043;-71
2021/12/04 02:48:19;;;;;;;5.87;3.80;;;;;;;10.33;31.27;97744.66;5109337;28;20078;-71
2021/12/04 02:50:45;;;;;;;4.67;3.40;;;;;;;10.60;30.95;97754.28;5074738;28;20051;-71
2021/12/04 02:53:11;;;;;;;5.03;3.23;;;;;;;10.20;31.15;97735.69;5058438;28;20043;-70
2021/12/04 02:55:36;;;;;;;4.63;3.53;;;;;;;9.49;32.33;97743.34;5075035;28;20055;-72
2021/12/04 02:58:03;;;;;;;6.27;3.93;;;;;;;10.25;31.62;97759.75;5058139;28;20201;-72
2021/12/04 03:00:29;;;;;;;5.57;3.60;;;;;;;9.98;31.65;97759.84;5074916;28;20124;-72
2021/12/04 03:02:56;;;;;;;5.77;3.70;;;;;;;10.50;30.78;97751.22;5058068;28;20492;-72
2021/12/04 03:05:26;;;;;;;7.17;3.87;;;;;;;9.93;31.65;97749.06;5091656;28;20048;-72
2021/12/04 03:07:53;;;;;;;3.90;3.30;;;;;;;10.60;30.95;97760.41;5091901;28;20082;-72
2021/12/04 03:10:18;;;;;;;5.60;3.37;;;;;;;10.17;31.24;97759.94;5075205;28;20048;-70
2021/12/04 03:12:44;;;;;;;7.83;3.50;;;;;;;9.96;31.54;97762.69;5074839;28;20419;-71
2021/12/04 03:15:10;;;;;;;5.40;3.27;;;;;;;9.87;31.68;97757.81;5091467;28;20078;-71
2021/12/04 03:17:36;;;;;;;4.03;3.10;;;;;;;9.98;31.33;97754.53;5041467;28;20043;-70
2021/12/04 03:20:03;;;;;;;5.47;3.20;;;;;;;9.81;32.24;97755.94;5074620;28;20496;-71
2021/12/04 03:22:29;;;;;;;4.00;3.30;;;;;;;10.05;31.49;97761.53;5074836;28;20452;-72
2021/12/04 03:24:56;;;;;;;3.87;3.10;;;;;;;10.17;31.18;97762.59;5092964;28;20055;-72
2021/12/04 03:27:23;;;;;;;4.70;2.97;;;;;;;9.97;31.56;97766.19;5058245;28;20048;-71
2021/12/04 03:29:55;;;;;;;4.43;3.20;;;;;;;9.79;31.68;97772.03;5058155;28;20134;-71
2021/12/04 03:35:21;;;;;;;4.53;3.23;;;;;;;10.78;30.64;97762.47;5077103;28;20503;-70
2021/12/04 03:42:49;;;;;;;5.93;3.47;;;;;;;10.40;31.16;97774.66;5075789;28;20044;-71
2021/12/04 03:45:15;;;;;;;4.80;3.20;;;;;;;10.00;31.24;97785.16;5091467;28;20131;-71
2021/12/04 03:47:45;;;;;;;5.40;3.63;;;;;;;9.86;31.66;97799.41;5057521;28;20128;-72
2021/12/04 03:50:11;;;;;;;5.63;3.25;;;;;;;9.48;31.84;97794.72;5074191;28;20534;-72
2021/12/04 03:52:36;;;;;;;3.40;2.60;;;;;;;9.30;31.93;97779.31;5074116;28;20070;-72
2021/12/04 03:55:04;;;;;;;4.80;3.43;;;;;;;10.32;31.46;97788.16;5090876;28;20051;-72
2021/12/04 03:57:31;;;;;;;5.00;3.40;;;;;;;9.96;31.52;97778.63;5090780;28;20040;-71
2021/12/04 03:59:59;;;;;;;5.67;3.17;;;;;;;10.05;30.97;97796.00;5073930;28;20043;-71
2021/12/04 04:02:25;;;;;;;4.90;3.13;;;;;;;9.96;31.70;97812.28;5107786;28;20061;-71
2021/12/04 04:04:51;;;;;;;5.07;3.10;;;;;;;9.72;31.53;97787.09;5041309;28;20176;-71
2021/12/04 04:07:17;;;;;;;5.43;3.63;;;;;;;9.89;31.27;97800.81;5056980;28;20040;-71
2021/12/04 04:09:43;;;;;;;4.13;3.10;;;;;;;10.02;31.15;97775.16;5057462;28;20055;-71
2021/12/04 04:12:08;;;;;;;3.73;3.00;;;;;;;10.31;31.30;97802.41;5073925;28;20086;-71
2021/12/04 04:14:34;;;;;;;5.20;3.00;;;;;;;10.25;31.00;97788.13;5073712;28;20047;-71
2021/12/04 04:17:00;;;;;;;4.40;2.70;;;;;;;10.39;31.12;97807.53;5090698;28;20047;-71
2021/12/04 04:19:26;;;;;;;6.90;3.27;;;;;;;10.30;30.75;97841.41;5073569;28;20040;-72
2021/12/04 04:21:55;;;;;;;5.00;2.93;;;;;;;10.02;31.66;97798.22;5074121;28;20055;-71
2021/12/04 04:24:20;;;;;;;6.13;3.07;;;;;;;9.87;31.44;97805.53;5091943;28;20181;-71
2021/12/04 04:26:47;;;;;;;3.30;2.83;;;;;;;10.47;31.09;97797.53;5073098;28;20071;-71
2021/12/04 04:29:13;;;;;;;3.97;2.90;;;;;;;10.21;31.35;97779.75;5040127;28;20047;-72
2021/12/04 04:31:47;;;;;;;3.47;3.13;;;;;;;10.35;31.92;97801.81;5090274;28;20092;-69
2021/12/04 04:34:29;;;;;;;4.70;3.23;;;;;;;10.75;31.17;97805.34;5057912;28;20061;-72
2021/12/04 05:12:46;;;;;;;6.10;3.07;;;;;;;9.93;31.12;97833.91;5090867;28;20044;-72
2021/12/04 05:15:16;;;;;;;4.17;3.03;;;;;;;10.63;31.01;97846.78;5089976;28;20040;-71
2021/12/04 05:17:55;;;;;;;4.07;2.97;;;;;;;10.05;30.74;97830.47;5091795;28;20040;-71
2021/12/04 05:20:25;;;;;;;6.67;4.00;;;;;;;10.14;31.36;97845.25;5089778;28;20055;-71
2021/12/04 05:22:51;;;;;;;5.03;2.97;;;;;;;10.65;30.56;97858.84;5090956;28;20066;-71
2021/12/04 05:25:17;;;;;;;4.60;3.80;;;;;;;9.65;31.40;97849.88;5090382;28;20551;-71
2021/12/04 05:27:43;;;;;;;6.23;4.43;;;;;;;10.27;31.56;97855.88;5038655;28;20047;-70
2021/12/04 05:30:09;;;;;;;5.10;3.80;;;;;;;9.85;31.60;97872.00;5072232;28;20055;-71
2021/12/04 05:32:35;;;;;;;9.43;4.97;;;;;;;10.68;30.75;97857.63;5055135;28;20054;-71
2021/12/04 05:35:00;;;;;;;8.23;4.43;;;;;;;10.30;30.78;97870.59;5055679;28;20040;-71
2021/12/04 05:37:26;;;;;;;8.03;4.63;;;;;;;10.41;31.08;97877.97;5072958;28;20052;-71
2021/12/04 05:39:52;;;;;;;4.57;3.77;;;;;;;9.99;31.19;97855.13;5089829;28;20097;-71
2021/12/04 05:42:17;;;;;;;5.33;3.30;;;;;;;8.94;33.84;97850.16;5072553;28;20056;-71
2021/12/04 05:44:44;;;;;;;12.33;7.47;;;;;;;9.76;33.12;97843.19;5055959;28;20044;-71
2021/12/04 05:47:32;;;;;;;6.23;4.10;;;;;;;10.25;31.71;97878.31;5106350;28;20063;-71
2021/12/04 05:50:15;;;;;;;6.87;3.93;;;;;;;10.33;31.37;97888.78;5090876;28;20079;-71
2021/12/04 05:55:18;;;;;;;5.47;3.80;;;;;;;9.86;32.15;97864.84;5106386;28;20506;-71
2021/12/04 05:57:44;;;;;;;5.27;3.63;;;;;;;10.52;31.43;97872.06;5090637;28;20035;-71
2021/12/04 06:00:19;;;;;;;7.67;4.10;;;;;;;11.40;30.41;97879.72;5056003;28;20051;-71
2021/12/04 06:02:45;;;;;;;5.00;3.53;;;;;;;10.53;31.17;97886.16;5090789;28;20043;-71
2021/12/04 06:05:12;;;;;;;5.70;3.87;;;;;;;11.06;31.20;97888.72;5056548;28;20097;-71
2021/12/04 06:07:38;;;;;;;5.67;4.10;;;;;;;11.16;30.33;97897.09;5089406;28;20040;-70
2021/12/04 06:10:05;;;;;;;4.77;3.80;;;;;;;11.27;30.76;97885.84;5056100;28;20046;-71
2021/12/04 06:12:31;;;;;;;5.93;3.70;;;;;;;10.39;31.83;97889.78;5039408;28;20452;-72
2021/12/04 06:14:56;;;;;;;4.73;3.77;;;;;;;10.00;31.53;97891.25;5039317;28;20041;-71
2021/12/04 06:17:23;;;;;;;7.57;3.80;;;;;;;10.52;31.19;97874.72;5039110;28;20042;-71
2021/12/04 06:22:43;;;;;;;7.10;3.80;;;;;;;11.03;30.62;97893.59;5074692;28;20143;-71
2021/12/04 06:25:20;;;;;;;5.50;3.70;;;;;;;11.21;30.40;97830.88;5040403;28;20450;-72
2021/12/04 06:27:46;;;;;;;4.27;3.20;;;;;;;9.39;32.55;97913.28;5059187;28;20055;-71
2021/12/04 06:30:15;;;;;;;15.50;4.17;;;;;;;10.51;31.92;97886.38;5059621;28;20040;-72
2021/12/04 06:32:42;;;;;;;5.07;4.10;;;;;;;9.88;31.56;97861.00;5042627;28;20089;-71
2021/12/04 06:35:10;;;;;;;7.33;4.17;;;;;;;11.00;32.14;97921.41;5093934;28;20044;-71
2021/12/04 06:37:36;;;;;;;5.80;4.10;;;;;;;10.66;31.73;97918.88;5042337;28;20079;-70
2021/12/04 06:40:04;;;;;;;5.27;3.90;;;;;;;11.21;30.77;97923.88;5092500;28;20129;-69
2021/12/04 06:42:30;;;;;;;5.40;3.97;;;;;;;10.95;31.12;97923.00;5075513;28;20285;-71
2021/12/04 06:44:56;;;;;;;5.73;3.80;;;;;;;10.98;30.73;97907.50;5093796;28;20461;-71
2021/12/04 06:47:23;;;;;;;6.43;4.33;;;;;;;11.24;30.96;97936.75;5075615;28;20048;-70
2021/12/04 06:50:01;;;;;;;8.50;4.40;;;;;;;11.18;31.09;97918.13;5092192;28;20161;-70
2021/12/04 06:52:28;;;;;;;9.53;4.17;;;;;;;10.18;32.20;97922.56;5060668;28;20054;-70
2021/12/04 06:54:56;;;;;;;31.27;5.30;;;;;;;9.75;33.16;97931.66;5092164;28;20065;-71
2021/12/04 06:57:22;;;;;;;6.77;4.27;;;;;;;10.15;32.47;97925.59;5058780;28;20066;-70
2021/12/04 06:59:49;;;;;;;6.73;4.77;;;;;;;10.63;31.96;97942.34;5093344;28;20582;-71
2021/12/04 07:02:15;;;;;;;7.00;4.77;;;;;;;10.98;31.29;97939.38;5108939;28;20564;-71
2021/12/04 07:04:41;;;;;;;6.10;4.93;;;;;;;10.73;31.79;97943.59;5091970;28;20040;-71
2021/12/04 07:07:08;;;;;;;7.73;4.43;;;;;;;10.60;32.20;97962.16;5058438;28;20055;-71
2021/12/04 07:09:35;;;;;;;7.23;4.67;;;;;;;11.35;31.26;97952.09;5074809;28;20461;-71
2021/12/04 07:12:01;;;;;;;6.93;4.67;;;;;;;11.12;31.77;97961.47;5075402;28;20044;-71
2021/12/04 07:14:28;;;;;;;7.30;4.50;;;;;;;10.77;32.54;97971.41;5074783;28;20499;-72
2021/12/04 07:16:54;;;;;;;8.13;4.87;;;;;;;11.32;31.07;97962.31;5074548;28;20127;-71
2021/12/04 07:19:20;;;;;;;8.53;4.73;;;;;;;11.32;31.45;97968.44;5093278;28;20139;-71
2021/12/04 07:21:46;;;;;;;5.83;4.17;;;;;;;10.87;31.79;97979.78;5057933;28;20180;-71
2021/12/04 07:24:13;;;;;;;12.27;5.63;;;;;;;11.01;31.88;97980.66;5058237;28;20059;-71
2021/12/04 07:26:39;;;;;;;6.77;4.40;;;;;;;10.95;31.36;97979.63;5091798;28;20059;-71
2021/12/04 07:29:05;;;;;;;5.73;4.13;;;;;;;11.22;40.20;97983.16;5092034;28;20040;-72
2021/12/04 07:31:31;;;;;;;6.10;4.57;;;;;;;11.36;35.01;97998.09;5074978;28;20067;-71
2021/12/04 07:33:57;;;;;;;6.33;4.37;;;;;;;11.38;31.54;98004.00;5074988;28;20075;-71
2021/12/04 07:36:23;;;;;;;8.57;4.70;;;;;;;11.16;31.74;98006.03;5074478;28;20495;-71
2021/12/04 07:38:49;;;;;;;9.83;5.87;;;;;;;11.53;31.19;98008.13;5058021;28;20411;-71
2021/12/04 07:41:15;;;;;;;13.90;4.53;;;;;;;11.14;31.98;98012.56;5091888;28;20491;-71
2021/12/04 07:43:41;;;;;;;7.53;4.60;;;;;;;11.48;30.87;98036.34;5075048;28;20051;-71
2021/12/04 07:46:06;;;;;;;7.93;5.70;;;;;;;11.51;30.91;98023.47;5057969;28;20599;-72
2021/12/04 07:48:32;;;;;;;6.67;4.40;;;;;;;11.21;31.00;98024.03;5074954;28;20040;-71
2021/12/04 07:51:01;;;;;;;6.67;4.00;;;;;;;11.68;30.86;98042.53;5091855;28;20453;-71
2021/12/04 07:53:28;;;;;;;5.17;3.90;;;;;;;11.54;30.71;98036.38;5092528;28;20089;-71
2021/12/04 07:55:53;;;;;;;6.07;3.77;;;;;;;11.61;30.18;98052.31;5074049;28;20135;-70
2021/12/04 07:58:19;;;;;;;4.03;3.30;;;;;;;11.85;29.26;98059.75;5040611;28;20242;-71
2021/12/04 08:00:45;;;;;;;3.93;2.70;;;;;;;11.76;29.02;98076.91;5040901;28;20134;-71
2021/12/04 08:03:10;;;;;;;3.43;3.00;;;;;;;11.84;28.43;98076.69;5090897;28;20044;-71
2021/12/04 08:05:36;;;;;;;8.30;3.17;;;;;;;11.87;28.81;98077.13;5091978;28;20063;-71
2021/12/04 08:08:02;;;;;;;5.23;3.17;;;;;;;11.76;28.01;98083.03;5092156;28;20119;-71
2021/12/04 08:10:28;;;;;;;4.53;3.00;;;;;;;12.61;27.69;98090.97;5057056;28;20134;-71
2021/12/04 08:12:55;;;;;;;3.70;3.20;;;;;;;12.93;27.61;98062.63;5073920;28;20048;-71
2021/12/04 08:15:21;;;;;;;7.07;4.63;;;;;;;13.06;26.97;98092.72;5057002;28;20040;-71
2021/12/04 08:17:47;;;;;;;4.03;2.67;;;;;;;12.88;26.49;98083.75;5056468;28;20070;-71
2021/12/04 08:20:17;;;;;;;3.03;2.70;;;;;;;13.28;25.77;98102.03;5057236;28;20543;-72
2021/12/04 08:22:43;;;;;;;4.07;1.90;;;;;;;12.01;26.49;98090.44;5056930;28;20075;-71
2021/12/04 08:25:11;;;;;;;2.23;1.83;;;;;;;12.74;25.74;98093.63;5057156;28;20047;-71
2021/12/04 08:27:36;;;;;;;3.07;1.97;;;;;;;12.19;25.61;98117.25;5073648;28;20048;-71
2021/12/04 08:30:05;;;;;;;3.60;2.10;;;;;;;12.06;25.76;98109.25;5040274;28;20039;-71
2021/12/04 08:32:31;;;;;;;2.57;1.87;;;;;;;11.99;25.50;98129.72;5073207;28;20055;-71
2021/12/04 08:34:57;;;;;;;3.30;1.73;;;;;;;11.58;25.17;98132.47;5039960;28;20080;-71
2021/12/04 08:37:22;;;;;;;9.33;2.00;;;;;;;11.86;25.15;98138.50;5090385;28;20077;-72
2021/12/04 08:39:49;;;;;;;2.43;1.67;;;;;;;11.55;25.71;98132.88;5039684;28;20170;-72
2021/12/04 08:42:15;;;;;;;2.87;2.30;;;;;;;12.12;25.61;98140.38;5089981;28;20044;-72
2021/12/04 08:44:43;;;;;;;2.17;1.97;;;;;;;12.06;24.66;98120.72;5072792;28;20044;-72
2021/12/04 08:47:09;;;;;;;3.10;2.10;;;;;;;11.99;25.31;98148.34;5056601;28;20039;-72
2021/12/04 08:49:35;;;;;;;2.10;1.90;;;;;;;12.25;25.17;98132.41;5089227;28;20040;-72
2021/12/04 08:52:03;;;;;;;2.60;1.87;;;;;;;12.01;24.39;98143.66;5090048;28;20492;-71
2021/12/04 08:54:30;;;;;;;3.10;2.20;;;;;;;12.49;24.77;98142.41;5073947;28;20047;-71
2021/12/04 08:56:55;;;;;;;3.33;2.00;;;;;;;12.25;24.70;98151.84;5072801;28;20126;-71
2021/12/04 08:59:21;;;;;;;2.67;1.80;;;;;;;12.62;24.36;98143.25;5072832;28;20138;-72
2021/12/04 09:01:48;;;;;;;2.63;1.90;;;;;;;12.43;24.36;98154.72;5089707;28;20055;-71
2021/12/04 09:04:29;;;;;;;1.80;1.70;;;;;;;12.84;23.76;98131.28;5072979;28;20196;-71
2021/12/04 09:06:56;;;;;;;2.63;1.88;;;;;;;12.89;24.11;98163.47;5056065;28;20075;-71
2021/12/04 09:09:24;;;;;;;2.83;2.53;;;;;;;14.20;23.80;98169.03;5073081;28;20067;-71
2021/12/04 09:11:53;;;;;;;2.67;2.47;;;;;;;16.97;21.33;98161.66;5072910;28;20032;-72
2021/12/04 09:14:21;;;;;;;1.95;1.83;;;;;;;19.32;18.95;98170.59;5055919;28;20052;-72
2021/12/04 09:16:51;;;;;;;1.95;1.75;;;;;;;20.71;17.94;98167.78;5055487;28;20062;-73
2021/12/04 09:19:17;;;;;;;1.60;1.50;;;;;;;21.51;16.65;98170.22;5072589;28;20075;-73
2021/12/04 09:21:43;;;;;;;1.45;1.35;;;;;;;21.79;15.72;98172.50;5055876;28;20072;-73
2021/12/04 09:24:14;;;;;;;1.73;1.23;;;;;;;21.92;15.56;98165.78;5072854;28;20055;-73
2021/12/04 10:15:54;;;;;;;1.88;1.50;;;;;;;20.01;16.41;98178.72;5073266;28;20040;-74
2021/12/04 10:23:53;;;;;;;2.35;1.90;;;;;;;16.78;19.51;98193.16;5093027;28;20408;-74
2021/12/04 10:34:48;;;;;;;5.47;3.10;;;;;;;14.53;22.06;98209.69;5075243;28;20040;-74
2021/12/04 10:37:21;;;;;;;6.07;2.78;;;;;;;14.45;22.17;98219.84;5075655;28;20085;-74
2021/12/04 10:39:46;;;;;;;2.53;2.33;;;;;;;13.84;22.27;98227.56;5059285;28;20036;-74
2021/12/04 10:42:22;;;;;;;4.10;2.60;;;;;;;13.67;22.33;98189.06;5041804;28;20058;-74
2021/12/04 10:44:51;;;;;;;6.63;4.23;;;;;;;14.03;22.33;98231.16;5043164;28;20075;-74
2021/12/04 10:47:23;;;;;;;3.63;2.50;;;;;;;13.95;22.74;98231.41;5108945;28;20047;-74
2021/12/04 10:55:40;;;;;;;3.90;2.27;;;;;;;14.13;22.36;98248.34;5092693;28;20043;-74
2021/12/04 10:59:31;;;;;;;2.20;2.00;;;;;;;13.76;22.81;98243.81;5077137;28;20151;-74
2021/12/04 11:04:32;;;;;;;3.07;2.13;;;;;;;13.92;23.12;98246.00;5092999;28;20076;-74
2021/12/04 11:26:36;;;;;;;3.33;2.50;;;;;;;12.47;24.76;98273.09;5060605;28;20036;-74
2021/12/04 11:39:36;;;;;;;6.40;2.77;;;;;;;12.34;24.56;98283.72;5058526;28;20039;-74
2021/12/04 11:45:17;;;;;;;4.00;2.47;;;;;;;12.91;24.67;98285.84;5045737;28;20052;-74
2021/12/04 11:47:47;;;;;;;5.27;2.40;;;;;;;12.74;24.59;98273.94;5090894;28;20097;-74
2021/12/04 11:50:29;;;;;;;4.90;2.40;;;;;;;12.46;24.56;98278.63;5091353;28;20047;-73
2021/12/04 11:53:07;;;;;;;3.57;2.67;;;;;;;12.69;24.71;98284.38;5057191;28;20040;-73
2021/12/04 11:55:35;;;;;;;2.53;2.27;;;;;;;12.28;25.23;98291.69;5057110;28;20048;-73
2021/12/04 11:58:02;;;;;;;5.20;2.63;;;;;;;11.97;25.30;98294.06;5090995;28;20059;-73
2021/12/04 12:00:34;;;;;;;2.67;2.23;;;;;;;12.26;25.12;98299.06;5091195;28;20043;-74
2021/12/04 12:03:15;;;;;;;2.53;2.10;;;;;;;12.15;24.73;98300.47;5074402;28;20048;-73
2021/12/04 12:05:50;;;;;;;3.85;2.47;;;;;;;12.12;24.99;98282.22;5092087;28;20101;-74
2021/12/04 12:08:26;;;;;;;3.73;2.50;;;;;;;12.42;24.91;98298.69;5057921;28;20051;-73
2021/12/04 12:10:54;;;;;;;2.87;2.20;;;;;;;11.87;25.52;98276.63;5073719;28;20205;-73
2021/12/04 12:13:26;;;;;;;3.87;2.60;;;;;;;12.22;24.96;98282.69;5074171;28;20040;-73
2021/12/04 12:16:05;;;;;;;7.57;2.90;;;;;;;12.35;25.23;98309.31;5056844;28;20047;-73
2021/12/04 12:18:54;;;;;;;3.53;2.47;;;;;;;12.53;24.51;98292.78;5074023;28;20468;-73
2021/12/04 12:21:26;;;;;;;2.83;2.40;;;;;;;12.12;25.19;98310.69;5091144;28;20127;-73
2021/12/04 12:33:00;;;;;;;3.57;2.70;;;;;;;12.36;25.14;98328.78;5073598;28;20044;-73
2021/12/04 12:38:16;;;;;;;3.97;2.60;;;;;;;11.88;25.48;98341.31;5059082;28;20514;-74
2021/12/04 12:40:42;;;;;;;5.93;3.38;;;;;;;11.44;25.82;98332.84;5090047;28;20040;-73
2021/12/04 12:43:17;;;;;;;6.13;3.10;;;;;;;11.79;25.77;98329.19;5039413;28;20108;-73
2021/12/04 12:45:55;;;;;;;3.80;2.90;;;;;;;11.73;25.77;98333.44;5055961;28;20089;-74
2021/12/04 12:48:20;;;;;;;4.30;2.57;;;;;;;11.20;25.58;98339.44;5056531;28;20052;-74
2021/12/04 12:50:47;;;;;;;3.07;2.50;;;;;;;11.33;25.83;98334.19;5039535;28;20139;-74
2021/12/04 12:53:25;;;;;;;10.37;2.93;;;;;;;11.46;26.00;98334.28;5072962;28;20052;-74
2021/12/04 12:56:02;;;;;;;3.23;2.73;;;;;;;11.17;26.19;98347.78;5090058;28;20074;-74
2021/12/04 12:58:33;;;;;;;3.37;2.73;;;;;;;11.56;25.63;98355.22;5089887;28;20044;-73
2021/12/04 13:12:46;;;;;;;8.13;3.83;;;;;;;12.06;25.71;98367.34;5060492;28;20076;-73
2021/12/04 13:15:13;;;;;;;7.97;3.77;;;;;;;11.46;25.93;98373.34;5090276;28;20048;-72
2021/12/04 13:17:41;;;;;;;6.83;4.00;;;;;;;11.52;25.87;98377.88;5073338;28;20036;-73
2021/12/04 13:20:08;;;;;;;7.23;3.90;;;;;;;11.93;25.79;98385.94;5056843;28;20048;-74
2021/12/04 13:22:35;;;;;;;7.07;4.40;;;;;;;11.34;26.28;98393.50;5056731;28;20518;-73
2021/12/04 13:25:08;;;;;;;7.93;4.43;;;;;;;11.96;25.94;98393.53;5058229;28;20047;-73
2021/12/04 13:30:03;;;;;;;7.63;3.70;;;;;;;12.10;25.19;98404.03;5056632;28;20534;-73
2021/12/04 13:32:32;;;;;;;5.50;3.43;;;;;;;11.50;25.24;98402.00;5090415;28;20415;-74
2021/12/04 13:35:07;;;;;;;4.53;2.90;;;;;;;12.13;24.99;98408.16;5091725;28;20583;-73
2021/12/04 13:37:32;;;;;;;4.67;3.07;;;;;;;11.53;25.28;98419.41;5077293;28;20047;-74
2021/12/04 13:40:03;;;;;;;5.23;3.00;;;;;;;11.58;25.60;98398.38;5077055;28;20052;-74
2021/12/04 13:42:29;;;;;;;5.57;3.30;;;;;;;11.50;25.21;98419.81;5077800;28;20079;-74
2021/12/04 13:45:04;;;;;;;5.50;3.03;;;;;;;11.96;24.78;98431.59;5061280;28;20083;-74
2021/12/04 13:47:29;;;;;;;3.80;2.80;;;;;;;11.02;25.40;98437.38;5077917;28;20044;-73
2021/12/04 13:50:00;;;;;;;6.10;3.10;;;;;;;10.67;25.42;98416.97;5060510;28;20070;-73
2021/12/04 13:52:28;;;;;;;6.05;3.22;;;;;;;11.41;25.47;98429.75;5044469;28;20093;-75
2021/12/04 13:55:08;;;;;;;4.93;2.90;;;;;;;11.72;24.66;98434.69;5077312;28;20147;-74
2021/12/04 13:57:38;;;;;;;3.47;2.63;;;;;;;11.63;25.23;98434.03;5059663;28;20040;-73
2021/12/04 14:00:04;;;;;;;5.73;3.33;;;;;;;11.23;25.36;98436.53;5093110;28;20048;-72
2021/12/04 14:02:31;;;;;;;7.47;3.10;;;;;;;11.27;25.24;98449.25;5059329;28;20032;-74
2021/12/04 14:04:59;;;;;;;4.77;2.50;;;;;;;11.41;24.65;98444.84;5076030;28;20047;-74
2021/12/04 14:07:25;;;;;;;7.43;3.13;;;;;;;11.02;25.05;98445.34;5076409;28;20052;-73
2021/12/04 14:09:50;;;;;;;4.40;2.80;;;;;;;10.78;25.49;98450.22;5076200;28;20146;-73
2021/12/04 14:12:16;;;;;;;3.60;2.70;;;;;;;10.72;25.41;98453.59;5093107;28;20044;-74
2021/12/04 14:14:42;;;;;;;4.43;2.80;;;;;;;10.76;25.13;98454.88;5059255;28;20528;-73
2021/12/04 14:17:11;;;;;;;3.77;3.00;;;;;;;11.35;25.23;98448.28;5059141;28;20097;-73
2021/12/04 14:19:38;;;;;;;4.00;2.90;;;;;;;10.91;25.48;98461.78;5093989;28;20503;-73
2021/12/04 14:22:08;;;;;;;4.40;2.90;;;;;;;10.73;25.15;98465.88;5075875;28;20040;-73
2021/12/04 14:24:42;;;;;;;5.72;2.80;;;;;;;11.41;24.50;98464.31;5075737;28;20047;-72
2021/12/04 14:27:10;;;;;;;3.20;2.60;;;;;;;11.13;24.56;98452.78;5075627;28;20047;-73
2021/12/04 14:29:39;;;;;;;3.07;2.60;;;;;;;10.97;24.76;98453.06;5092576;28;20036;-73
2021/12/04 14:32:06;;;;;;;3.90;2.60;;;;;;;10.96;24.87;98466.53;5092967;28;20044;-73
2021/12/04 14:34:32;;;;;;;3.23;2.57;;;;;;;10.85;25.02;98459.06;5075883;28;20055;-73
2021/12/04 14:37:07;;;;;;;3.17;2.87;;;;;;;10.97;24.89;98449.56;5094259;28;20039;-72
2021/12/04 14:39:33;;;;;;;4.50;2.90;;;;;;;11.29;24.70;98470.31;5058865;28;20040;-73
2021/12/04 14:41:59;;;;;;;3.73;2.80;;;;;;;10.75;24.49;98469.16;5075420;28;20058;-74
2021/12/04 14:44:25;;;;;;;4.73;2.70;;;;;;;11.06;24.23;98480.31;5059472;28;20048;-73
2021/12/04 14:46:51;;;;;;;8.00;2.93;;;;;;;11.05;24.22;98468.88;5057666;28;20040;-72
2021/12/04 14:49:17;;;;;;;3.23;2.50;;;;;;;10.67;24.20;98485.22;5075758;28;20164;-73
2021/12/04 14:51:43;;;;;;;3.90;2.67;;;;;;;10.18;24.32;98487.63;5058711;28;20071;-73
2021/12/04 14:54:09;;;;;;;2.20;2.00;;;;;;;9.64;24.37;98486.19;5075563;28;20059;-73